createdAt,value
2019-01-30T00:01:01.000Z,28.1
2019-01-30T00:03:01.000Z,28.1
2019-01-30T00:05:01.000Z,28.1
2019-01-30T00:06:01.000Z,28.1
2019-01-30T00:07:01.000Z,28.1
2019-01-30T00:09:01.000Z,28.1
2019-01-30T00:11:01.000Z,28.1
2019-01-30T00:12:01.000Z,28.1
2019-01-30T00:13:01.000Z,28.1
2019-01-30T00:15:01.000Z,28.1
2019-01-30T00:17:01.000Z,28.1
2019-01-30T00:18:01.000Z,28.1
2019-01-30T00:19:01.000Z,28.1
2019-01-30T00:21:01.000Z,28.1
2019-01-30T00:22:01.000Z,28.1
2019-01-30T00:24:01.000Z,28.1
2019-01-30T00:26:01.000Z,28.1
2019-01-30T00:28:01.000Z,28.1
2019-01-30T00:29:01.000Z,28.1
2019-01-30T00:31:01.000Z,28.1
2019-01-30T00:32:01.000Z,28.1
2019-01-30T00:33:01.000Z,28
2019-01-30T00:34:01.000Z,28.1
2019-01-30T00:35:01.000Z,28.1
2019-01-30T00:37:01.000Z,28.1
2019-01-30T00:38:46.000Z,28.1
2019-01-30T00:40:01.000Z,28.1
2019-01-30T00:42:01.000Z,28
2019-01-30T00:43:01.000Z,28.1
2019-01-30T00:45:02.000Z,28.1
2019-01-30T00:47:01.000Z,28
2019-01-30T00:48:02.000Z,28
2019-01-30T00:49:02.000Z,28
2019-01-30T00:50:02.000Z,28
2019-01-30T00:51:02.000Z,28
2019-01-30T00:52:46.000Z,28
2019-01-30T00:54:02.000Z,28
2019-01-30T00:55:02.000Z,28
2019-01-30T00:57:02.000Z,28
2019-01-30T00:58:02.000Z,28
2019-01-30T01:00:02.000Z,28
2019-01-30T01:01:02.000Z,28
2019-01-30T01:02:46.000Z,28
2019-01-30T01:04:02.000Z,28
2019-01-30T01:05:46.000Z,28.1
2019-01-30T01:07:02.000Z,28
2019-01-30T01:08:02.000Z,28
2019-01-30T01:10:02.000Z,28
2019-01-30T01:12:02.000Z,28
2019-01-30T01:14:02.000Z,28
2019-01-30T01:16:02.000Z,28
2019-01-30T01:17:02.000Z,28
2019-01-30T01:19:02.000Z,28
2019-01-30T01:20:02.000Z,28
2019-01-30T01:22:02.000Z,28
2019-01-30T01:23:02.000Z,28
2019-01-30T01:24:02.000Z,28
2019-01-30T01:26:02.000Z,28
2019-01-30T01:27:46.000Z,28
2019-01-30T01:29:02.000Z,28
2019-01-30T01:31:02.000Z,28
2019-01-30T01:33:02.000Z,28
2019-01-30T01:35:02.000Z,28
2019-01-30T01:37:02.000Z,28
2019-01-30T01:38:02.000Z,28
2019-01-30T01:40:02.000Z,28
2019-01-30T01:41:02.000Z,28
2019-01-30T01:43:02.000Z,28
2019-01-30T01:44:02.000Z,28
2019-01-30T01:46:02.000Z,28
2019-01-30T01:47:02.000Z,28
2019-01-30T01:49:01.000Z,28
2019-01-30T01:50:01.000Z,28
2019-01-30T01:52:01.000Z,28
2019-01-30T01:53:01.000Z,28
2019-01-30T01:55:01.000Z,28
2019-01-30T01:56:01.000Z,27.9
2019-01-30T01:57:01.000Z,27.9
2019-01-30T01:58:01.000Z,27.9
2019-01-30T02:00:01.000Z,28
2019-01-30T02:02:01.000Z,28
2019-01-30T02:03:01.000Z,28
2019-01-30T02:05:01.000Z,27.9
2019-01-30T02:07:01.000Z,28
2019-01-30T02:09:01.000Z,27.9
2019-01-30T02:10:01.000Z,27.9
2019-01-30T02:11:46.000Z,27.9
2019-01-30T02:13:01.000Z,27.9
2019-01-30T02:15:01.000Z,27.9
2019-01-30T02:16:01.000Z,27.9
2019-01-30T02:18:01.000Z,27.9
2019-01-30T02:20:01.000Z,27.9
2019-01-30T02:21:01.000Z,27.9
2019-01-30T02:23:01.000Z,27.9
2019-01-30T02:24:01.000Z,27.9
2019-01-30T02:26:01.000Z,27.9
2019-01-30T02:28:01.000Z,27.9
2019-01-30T02:29:01.000Z,27.9
2019-01-30T02:30:46.000Z,27.9
2019-01-30T02:32:01.000Z,27.9
2019-01-30T02:33:01.000Z,27.9
2019-01-30T02:34:46.000Z,27.9
2019-01-30T02:36:01.000Z,27.9
2019-01-30T02:37:01.000Z,27.9
2019-01-30T02:39:01.000Z,27.9
2019-01-30T02:41:01.000Z,27.9
2019-01-30T02:43:01.000Z,27.9
2019-01-30T02:44:01.000Z,27.9
2019-01-30T02:45:01.000Z,27.9
2019-01-30T02:46:46.000Z,27.9
2019-01-30T02:48:01.000Z,27.9
2019-01-30T02:49:01.000Z,27.9
2019-01-30T02:50:01.000Z,27.9
2019-01-30T02:51:46.000Z,27.9
2019-01-30T02:53:01.000Z,27.9
2019-01-30T02:55:01.000Z,27.9
2019-01-30T02:56:01.000Z,27.9
2019-01-30T02:57:01.000Z,27.9
2019-01-30T02:59:01.000Z,27.9
2019-01-30T03:00:01.000Z,27.9
2019-01-30T03:02:01.000Z,27.9
2019-01-30T03:03:01.000Z,27.9
2019-01-30T03:05:01.000Z,27.9
2019-01-30T03:06:46.000Z,27.9
2019-01-30T03:08:01.000Z,27.9
2019-01-30T03:10:01.000Z,27.9
2019-01-30T03:11:01.000Z,27.9
2019-01-30T03:12:01.000Z,27.9
2019-01-30T03:14:01.000Z,27.9
2019-01-30T03:15:01.000Z,27.9
2019-01-30T03:16:46.000Z,27.9
2019-01-30T03:18:01.000Z,27.9
2019-01-30T03:20:01.000Z,27.9
2019-01-30T03:21:01.000Z,27.8
2019-01-30T03:23:01.000Z,27.8
2019-01-30T03:24:02.000Z,27.8
2019-01-30T03:26:01.000Z,27.8
2019-01-30T03:27:01.000Z,27.9
2019-01-30T03:29:01.000Z,27.8
2019-01-30T03:30:02.000Z,27.8
2019-01-30T03:31:02.000Z,27.8
2019-01-30T03:33:01.000Z,27.8
2019-01-30T03:35:01.000Z,27.8
2019-01-30T03:36:01.000Z,27.8
2019-01-30T03:37:01.000Z,27.8
2019-01-30T03:39:02.000Z,27.8
2019-01-30T03:41:01.000Z,27.8
2019-01-30T03:42:01.000Z,27.8
2019-01-30T03:44:01.000Z,27.8
2019-01-30T03:45:02.000Z,27.8
2019-01-30T03:46:46.000Z,27.8
2019-01-30T03:48:01.000Z,27.8
2019-01-30T03:49:01.000Z,27.8
2019-01-30T03:50:02.000Z,27.8
2019-01-30T03:52:01.000Z,27.8
2019-01-30T03:53:02.000Z,27.8
2019-01-30T03:55:02.000Z,27.8
2019-01-30T03:57:01.000Z,27.8
2019-01-30T03:59:01.000Z,27.8
2019-01-30T04:01:01.000Z,27.8
2019-01-30T04:03:01.000Z,27.8
2019-01-30T04:04:01.000Z,27.8
2019-01-30T04:05:01.000Z,27.8
2019-01-30T04:07:01.000Z,27.8
2019-01-30T04:09:01.000Z,27.8
2019-01-30T04:10:01.000Z,27.8
2019-01-30T04:11:01.000Z,27.8
2019-01-30T04:13:01.000Z,27.8
2019-01-30T04:15:01.000Z,27.8
2019-01-30T04:16:46.000Z,27.8
2019-01-30T04:18:01.000Z,27.8
2019-01-30T04:20:01.000Z,27.8
2019-01-30T04:21:01.000Z,27.8
2019-01-30T04:23:01.000Z,27.8
2019-01-30T04:25:01.000Z,27.8
2019-01-30T04:27:01.000Z,27.8
2019-01-30T04:29:01.000Z,27.8
2019-01-30T04:31:01.000Z,27.8
2019-01-30T04:32:01.000Z,27.8
2019-01-30T04:34:01.000Z,27.8
2019-01-30T04:36:01.000Z,27.8
2019-01-30T04:37:01.000Z,27.8
2019-01-30T04:38:01.000Z,27.8
2019-01-30T04:39:01.000Z,27.8
2019-01-30T04:41:01.000Z,27.8
2019-01-30T04:42:01.000Z,27.8
2019-01-30T04:44:01.000Z,27.8
2019-01-30T04:45:01.000Z,27.8
2019-01-30T04:47:01.000Z,27.8
2019-01-30T04:48:01.000Z,27.7
2019-01-30T04:50:01.000Z,27.8
2019-01-30T04:52:01.000Z,27.8
2019-01-30T04:53:01.000Z,27.8
2019-01-30T04:55:01.000Z,27.7
2019-01-30T04:57:01.000Z,27.7
2019-01-30T04:58:01.000Z,27.8
2019-01-30T04:59:01.000Z,27.8
2019-01-30T05:00:01.000Z,27.8
2019-01-30T05:01:46.000Z,27.7
2019-01-30T05:03:01.000Z,27.7
2019-01-30T05:05:01.000Z,27.7
2019-01-30T05:07:01.000Z,27.8
2019-01-30T05:08:01.000Z,27.7
2019-01-30T05:10:01.000Z,27.7
2019-01-30T05:12:01.000Z,27.7
2019-01-30T05:13:46.000Z,27.7
2019-01-30T05:15:01.000Z,27.7
2019-01-30T05:17:01.000Z,27.7
2019-01-30T05:18:01.000Z,27.7
2019-01-30T05:19:01.000Z,27.7
2019-01-30T05:21:01.000Z,27.7
2019-01-30T05:23:01.000Z,27.7
2019-01-30T05:24:01.000Z,27.7
2019-01-30T05:26:01.000Z,27.7
2019-01-30T05:27:01.000Z,27.7
2019-01-30T05:29:01.000Z,27.7
2019-01-30T05:30:01.000Z,27.7
2019-01-30T05:31:01.000Z,27.7
2019-01-30T05:32:01.000Z,27.7
2019-01-30T05:34:01.000Z,27.7
2019-01-30T05:36:01.000Z,27.7
2019-01-30T05:38:01.000Z,27.7
2019-01-30T05:40:01.000Z,27.7
2019-01-30T05:42:01.000Z,27.7
2019-01-30T05:43:01.000Z,27.7
2019-01-30T05:45:01.000Z,27.7
2019-01-30T05:47:01.000Z,27.7
2019-01-30T05:49:01.000Z,27.7
2019-01-30T05:50:01.000Z,27.7
2019-01-30T05:52:01.000Z,27.7
2019-01-30T05:54:01.000Z,27.7
2019-01-30T05:55:01.000Z,27.7
2019-01-30T05:57:01.000Z,27.7
2019-01-30T05:59:01.000Z,27.7
2019-01-30T06:00:01.000Z,27.7
2019-01-30T06:02:01.000Z,27.7
2019-01-30T06:04:01.000Z,27.7
2019-01-30T06:06:01.000Z,27.7
2019-01-30T06:07:01.000Z,27.7
2019-01-30T06:08:01.000Z,27.7
2019-01-30T06:10:01.000Z,27.7
2019-01-30T06:11:01.000Z,27.7
2019-01-30T06:12:01.000Z,27.8
2019-01-30T06:14:01.000Z,27.8
2019-01-30T06:16:01.000Z,27.8
2019-01-30T06:18:01.000Z,27.8
2019-01-30T06:19:01.000Z,27.8
2019-01-30T06:21:01.000Z,27.8
2019-01-30T06:22:01.000Z,27.7
2019-01-30T06:24:01.000Z,27.7
2019-01-30T06:25:01.000Z,27.7
2019-01-30T06:27:01.000Z,27.8
2019-01-30T06:28:01.000Z,27.8
2019-01-30T06:30:01.000Z,27.8
2019-01-30T06:31:01.000Z,27.8
2019-01-30T06:33:01.000Z,27.8
2019-01-30T06:34:01.000Z,27.8
2019-01-30T06:36:01.000Z,27.9
2019-01-30T06:37:01.000Z,27.9
2019-01-30T06:39:01.000Z,27.9
2019-01-30T06:41:01.000Z,27.8
2019-01-30T06:42:01.000Z,27.8
2019-01-30T06:44:01.000Z,27.8
2019-01-30T06:46:01.000Z,27.9
2019-01-30T06:48:01.000Z,27.9
2019-01-30T06:50:01.000Z,27.9
2019-01-30T06:51:01.000Z,27.9
2019-01-30T06:52:01.000Z,27.8
2019-01-30T06:54:01.000Z,27.8
2019-01-30T06:56:01.000Z,27.9
2019-01-30T06:57:01.000Z,27.9
2019-01-30T06:59:01.000Z,27.9
2019-01-30T07:00:46.000Z,27.9
2019-01-30T07:02:01.000Z,27.8
2019-01-30T07:03:01.000Z,27.9
2019-01-30T07:04:01.000Z,27.9
2019-01-30T07:05:01.000Z,27.9
2019-01-30T07:06:46.000Z,27.9
2019-01-30T07:08:01.000Z,27.9
2019-01-30T07:09:01.000Z,27.9
2019-01-30T07:11:01.000Z,27.9
2019-01-30T07:13:01.000Z,27.9
2019-01-30T07:14:01.000Z,27.9
2019-01-30T07:15:46.000Z,27.9
2019-01-30T07:17:01.000Z,27.9
2019-01-30T07:19:01.000Z,27.9
2019-01-30T07:21:01.000Z,27.9
2019-01-30T07:23:01.000Z,27.9
2019-01-30T07:24:01.000Z,27.9
2019-01-30T07:25:01.000Z,28
2019-01-30T07:27:01.000Z,28
2019-01-30T07:28:01.000Z,28
2019-01-30T07:29:01.000Z,28
2019-01-30T07:31:01.000Z,28
2019-01-30T07:33:01.000Z,28.1
2019-01-30T07:34:01.000Z,28.1
2019-01-30T07:35:46.000Z,28.1
2019-01-30T07:37:01.000Z,28.1
2019-01-30T07:39:01.000Z,28.1
2019-01-30T07:40:01.000Z,28.1
2019-01-30T07:41:01.000Z,28.1
2019-01-30T07:43:01.000Z,28.2
2019-01-30T07:44:01.000Z,28.2
2019-01-30T07:46:01.000Z,28.2
2019-01-30T07:47:01.000Z,28.2
2019-01-30T07:48:01.000Z,28.2
2019-01-30T07:50:01.000Z,28.3
2019-01-30T07:52:01.000Z,28.3
2019-01-30T07:53:01.000Z,28.3
2019-01-30T07:54:01.000Z,28.3
2019-01-30T07:55:01.000Z,28.3
2019-01-30T07:57:01.000Z,28.3
2019-01-30T07:59:01.000Z,28.4
2019-01-30T08:00:01.000Z,28.4
2019-01-30T08:02:01.000Z,28.4
2019-01-30T08:04:01.000Z,28.4
2019-01-30T08:05:01.000Z,28.4
2019-01-30T08:06:01.000Z,28.5
2019-01-30T08:08:01.000Z,28.5
2019-01-30T08:10:01.000Z,28.5
2019-01-30T08:12:01.000Z,28.5
2019-01-30T08:14:01.000Z,28.5
2019-01-30T08:16:01.000Z,28.6
2019-01-30T08:18:01.000Z,28.6
2019-01-30T08:19:01.000Z,28.6
2019-01-30T08:20:46.000Z,28.6
2019-01-30T08:22:01.000Z,28.6
2019-01-30T08:23:46.000Z,28.7
2019-01-30T08:25:47.000Z,28.7
2019-01-30T08:27:01.000Z,28.7
2019-01-30T08:28:46.000Z,28.7
2019-01-30T08:29:46.000Z,28.7
2019-01-30T08:31:01.000Z,28.7
2019-01-30T08:32:46.000Z,28.7
2019-01-30T08:34:01.000Z,28.7
2019-01-30T08:35:01.000Z,28.7
2019-01-30T08:37:01.000Z,28.8
2019-01-30T08:38:46.000Z,28.8
2019-01-30T08:40:01.000Z,28.8
2019-01-30T08:41:01.000Z,28.9
2019-01-30T08:42:01.000Z,28.9
2019-01-30T08:44:01.000Z,28.9
2019-01-30T08:46:01.000Z,28.9
2019-01-30T08:47:01.000Z,28.9
2019-01-30T08:48:01.000Z,29
2019-01-30T08:50:01.000Z,29
2019-01-30T08:52:01.000Z,29
2019-01-30T08:54:01.000Z,29
2019-01-30T08:55:01.000Z,29
2019-01-30T08:56:01.000Z,29
2019-01-30T08:57:46.000Z,29
2019-01-30T08:59:01.000Z,29
2019-01-30T09:00:01.000Z,29
2019-01-30T09:02:01.000Z,29.1
2019-01-30T09:04:01.000Z,29.1
2019-01-30T09:06:01.000Z,29.1
2019-01-30T09:08:01.000Z,29.1
2019-01-30T09:10:01.000Z,29.1
2019-01-30T09:12:01.000Z,29.1
2019-01-30T09:13:01.000Z,29.1
2019-01-30T09:14:01.000Z,29.1
2019-01-30T09:16:01.000Z,29.2
2019-01-30T09:18:01.000Z,29.2
2019-01-30T09:20:01.000Z,29.2
2019-01-30T09:21:01.000Z,29.2
2019-01-30T09:22:01.000Z,29.2
2019-01-30T09:24:01.000Z,29.2
2019-01-30T09:25:01.000Z,29.3
2019-01-30T09:26:46.000Z,29.3
2019-01-30T09:27:46.000Z,29.3
2019-01-30T09:29:01.000Z,29.3
2019-01-30T09:30:01.000Z,29.3
2019-01-30T09:32:01.000Z,29.3
2019-01-30T09:34:01.000Z,29.3
2019-01-30T09:35:01.000Z,29.3
2019-01-30T09:37:01.000Z,29.3
2019-01-30T09:38:46.000Z,29.3
2019-01-30T09:39:46.000Z,29.4
2019-01-30T09:41:01.000Z,29.3
2019-01-30T09:43:01.000Z,29.4
2019-01-30T09:45:01.000Z,29.4
2019-01-30T09:47:01.000Z,29.4
2019-01-30T09:48:01.000Z,29.4
2019-01-30T09:49:46.000Z,29.4
2019-01-30T09:51:01.000Z,29.5
2019-01-30T09:53:01.000Z,29.5
2019-01-30T09:55:01.000Z,29.5
2019-01-30T09:56:01.000Z,29.5
2019-01-30T09:57:46.000Z,29.5
2019-01-30T09:59:01.000Z,29.5
2019-01-30T10:01:01.000Z,29.5
2019-01-30T10:03:01.000Z,29.5
2019-01-30T10:04:01.000Z,29.6
2019-01-30T10:06:01.000Z,29.6
2019-01-30T10:07:01.000Z,29.6
2019-01-30T10:09:01.000Z,29.6
2019-01-30T10:10:46.000Z,29.6
2019-01-30T10:12:01.000Z,29.6
2019-01-30T10:13:01.000Z,29.7
2019-01-30T10:15:01.000Z,29.7
2019-01-30T10:16:01.000Z,29.7
2019-01-30T10:17:01.000Z,29.7
2019-01-30T10:19:01.000Z,29.8
2019-01-30T10:20:01.000Z,29.8
2019-01-30T10:22:01.000Z,29.8
2019-01-30T10:23:01.000Z,29.8
2019-01-30T10:25:01.000Z,29.9
2019-01-30T10:26:01.000Z,29.9
2019-01-30T10:28:01.000Z,29.9
2019-01-30T10:29:01.000Z,29.9
2019-01-30T10:30:46.000Z,29.9
2019-01-30T10:32:01.000Z,29.9
2019-01-30T10:34:01.000Z,30
2019-01-30T10:35:01.000Z,30
2019-01-30T10:36:01.000Z,30
2019-01-30T10:38:01.000Z,30
2019-01-30T10:40:01.000Z,30
2019-01-30T10:42:01.000Z,29.9
2019-01-30T10:43:01.000Z,29.9
2019-01-30T10:44:01.000Z,29.9
2019-01-30T10:45:46.000Z,29.9
2019-01-30T10:47:01.000Z,29.9
2019-01-30T10:48:01.000Z,29.9
2019-01-30T10:50:01.000Z,29.9
2019-01-30T10:51:46.000Z,29.9
2019-01-30T10:53:01.000Z,29.9
2019-01-30T10:55:01.000Z,29.9
2019-01-30T10:57:01.000Z,30
2019-01-30T10:59:01.000Z,30
2019-01-30T11:01:01.000Z,30
2019-01-30T11:02:01.000Z,30
2019-01-30T11:03:01.000Z,30
2019-01-30T11:05:01.000Z,30
2019-01-30T11:06:01.000Z,30.1
2019-01-30T11:08:01.000Z,30.1
2019-01-30T11:10:01.000Z,30.1
2019-01-30T11:11:01.000Z,30.1
2019-01-30T11:13:01.000Z,30.1
2019-01-30T11:15:01.000Z,30.1
2019-01-30T11:17:01.000Z,30.1
2019-01-30T11:18:01.000Z,30.1
2019-01-30T11:20:01.000Z,30.1
2019-01-30T11:21:01.000Z,30.1
2019-01-30T11:23:01.000Z,30.1
2019-01-30T11:25:01.000Z,30.1
2019-01-30T11:26:01.000Z,30.1
2019-01-30T11:27:46.000Z,30.1
2019-01-30T11:29:02.000Z,30.1
2019-01-30T11:30:46.000Z,30.1
2019-01-30T11:32:02.000Z,30.2
2019-01-30T11:33:02.000Z,30.2
2019-01-30T11:34:46.000Z,30.2
2019-01-30T11:35:47.000Z,30.2
2019-01-30T11:37:02.000Z,30.2
2019-01-30T11:39:02.000Z,30.2
2019-01-30T11:40:02.000Z,30.2
2019-01-30T11:42:02.000Z,30.2
2019-01-30T11:44:02.000Z,30.2
2019-01-30T11:45:02.000Z,30.2
2019-01-30T11:47:02.000Z,30.2
2019-01-30T11:48:47.000Z,30.2
2019-01-30T12:33:32.000Z,30.5
2019-01-30T12:35:17.000Z,30.6
2019-01-30T12:36:32.000Z,30.6
2019-01-30T12:37:32.000Z,30.6
2019-01-30T12:38:32.000Z,30.7
2019-01-30T12:40:17.000Z,30.7
2019-01-30T12:41:32.000Z,30.7
2019-01-30T12:43:32.000Z,30.8
2019-01-30T12:45:32.000Z,30.8
2019-01-30T12:46:32.000Z,30.8
2019-01-30T12:48:32.000Z,30.8
2019-01-30T12:49:32.000Z,30.9
2019-01-30T12:50:32.000Z,30.9
2019-01-30T12:52:32.000Z,30.9
2019-01-30T12:54:32.000Z,30.9
2019-01-30T12:56:32.000Z,30.9
2019-01-30T12:58:32.000Z,30.9
2019-01-30T13:00:32.000Z,31
2019-01-30T13:02:32.000Z,31
2019-01-30T13:04:32.000Z,31
2019-01-30T13:06:32.000Z,31
2019-01-30T13:08:32.000Z,31.1
2019-01-30T13:09:32.000Z,31.1
2019-01-30T13:11:32.000Z,31.1
2019-01-30T13:12:32.000Z,31.1
2019-01-30T13:13:32.000Z,31.1
2019-01-30T13:14:32.000Z,31.1
2019-01-30T13:16:32.000Z,31.1
2019-01-30T13:17:32.000Z,31.1
2019-01-30T13:19:32.000Z,31.1
2019-01-30T13:20:32.000Z,31.1
2019-01-30T13:22:32.000Z,31.1
2019-01-30T13:23:32.000Z,31.1
2019-01-30T13:25:32.000Z,31
2019-01-30T13:27:32.000Z,31
2019-01-30T13:28:32.000Z,31
2019-01-30T13:30:32.000Z,31
2019-01-30T13:32:32.000Z,31
2019-01-30T13:33:32.000Z,31
2019-01-30T13:34:32.000Z,31
2019-01-30T13:36:32.000Z,31
2019-01-30T13:37:32.000Z,31
2019-01-30T13:39:17.000Z,31
2019-01-30T13:40:32.000Z,31
2019-01-30T13:42:32.000Z,31
2019-01-30T13:43:32.000Z,31
2019-01-30T13:45:32.000Z,31
2019-01-30T13:46:32.000Z,31
2019-01-30T13:48:32.000Z,30.9
2019-01-30T13:49:32.000Z,30.9
2019-01-30T13:51:17.000Z,30.9
2019-01-30T13:52:32.000Z,30.9
2019-01-30T13:53:32.000Z,30.9
2019-01-30T13:55:32.000Z,30.9
2019-01-30T13:56:32.000Z,30.9
2019-01-30T13:57:32.000Z,30.8
2019-01-30T13:59:32.000Z,30.8
2019-01-30T14:01:17.000Z,30.8
2019-01-30T14:02:17.000Z,30.8
2019-01-30T14:03:32.000Z,30.8
2019-01-30T14:04:32.000Z,30.8
2019-01-30T14:05:32.000Z,30.8
2019-01-30T14:07:32.000Z,30.8
2019-01-30T14:09:17.000Z,30.8
2019-01-30T14:10:32.000Z,30.9
2019-01-30T14:11:32.000Z,30.9
2019-01-30T14:13:32.000Z,30.9
2019-01-30T14:14:32.000Z,30.9
2019-01-30T14:16:32.000Z,30.9
2019-01-30T14:18:32.000Z,30.9
2019-01-30T14:20:32.000Z,30.9
2019-01-30T14:22:32.000Z,30.9
2019-01-30T14:23:32.000Z,30.9
2019-01-30T14:24:32.000Z,30.9
2019-01-30T14:26:32.000Z,30.9
2019-01-30T14:28:32.000Z,30.9
2019-01-30T14:30:32.000Z,30.9
2019-01-30T14:32:32.000Z,30.9
2019-01-30T14:33:32.000Z,30.9
2019-01-30T14:35:32.000Z,30.9
2019-01-30T14:36:32.000Z,30.9
2019-01-30T14:37:32.000Z,30.9
2019-01-30T14:39:32.000Z,30.9
2019-01-30T14:41:17.000Z,30.9
2019-01-30T14:42:32.000Z,30.9
2019-01-30T14:44:17.000Z,30.9
2019-01-30T14:45:32.000Z,30.9
2019-01-30T14:46:32.000Z,30.9
2019-01-30T14:48:32.000Z,30.9
2019-01-30T14:50:32.000Z,30.9
2019-01-30T14:51:32.000Z,30.9
2019-01-30T14:53:32.000Z,30.9
2019-01-30T14:54:32.000Z,30.9
2019-01-30T14:56:32.000Z,30.9
2019-01-30T14:58:17.000Z,30.9
2019-01-30T14:59:32.000Z,30.9
2019-01-30T15:00:32.000Z,30.9
2019-01-30T15:01:32.000Z,30.9
2019-01-30T15:03:32.000Z,31
2019-01-30T15:05:17.000Z,30.9
2019-01-30T15:06:32.000Z,30.9
2019-01-30T15:08:32.000Z,30.9
2019-01-30T15:10:32.000Z,30.9
2019-01-30T15:11:32.000Z,30.9
2019-01-30T15:13:17.000Z,30.9
2019-01-30T15:14:32.000Z,30.9
2019-01-30T15:16:32.000Z,30.9
2019-01-30T15:18:32.000Z,30.9
2019-01-30T15:20:32.000Z,30.9
2019-01-30T15:22:32.000Z,30.9
2019-01-30T15:23:32.000Z,30.9
2019-01-30T15:25:32.000Z,30.9
2019-01-30T15:27:17.000Z,30.9
2019-01-30T15:28:32.000Z,30.9
2019-01-30T15:29:32.000Z,30.9
2019-01-30T15:31:32.000Z,30.9
2019-01-30T15:33:32.000Z,30.9
2019-01-30T15:35:32.000Z,30.9
2019-01-30T15:37:32.000Z,30.9
2019-01-30T15:39:17.000Z,30.9
2019-01-30T15:40:32.000Z,30.9
2019-01-30T15:41:32.000Z,30.9
2019-01-30T15:43:32.000Z,30.9
2019-01-30T15:45:32.000Z,30.9
2019-01-30T15:47:32.000Z,30.9
2019-01-30T15:49:32.000Z,30.9
2019-01-30T15:50:32.000Z,30.9
2019-01-30T15:52:32.000Z,30.9
2019-01-30T15:53:32.000Z,30.9
2019-01-30T15:55:32.000Z,30.9
2019-01-30T15:56:32.000Z,30.9
2019-01-30T15:58:17.000Z,31
2019-01-30T15:59:32.000Z,31
2019-01-30T16:00:32.000Z,31
2019-01-30T16:02:32.000Z,31
2019-01-30T16:03:32.000Z,31
2019-01-30T16:05:32.000Z,31
2019-01-30T16:07:32.000Z,30.9
2019-01-30T16:08:32.000Z,30.9
2019-01-30T16:09:32.000Z,30.9
2019-01-30T16:11:32.000Z,30.9
2019-01-30T16:13:32.000Z,30.9
2019-01-30T16:14:32.000Z,30.9
2019-01-30T16:16:32.000Z,30.9
2019-01-30T16:18:32.000Z,31
2019-01-30T16:19:32.000Z,31
2019-01-30T16:21:32.000Z,31
2019-01-30T16:23:32.000Z,31
2019-01-30T16:24:32.000Z,31
2019-01-30T16:26:32.000Z,31
2019-01-30T16:27:32.000Z,31
2019-01-30T16:28:32.000Z,31
2019-01-30T16:30:32.000Z,31
2019-01-30T16:31:32.000Z,31
2019-01-30T16:32:32.000Z,31
2019-01-30T16:34:32.000Z,31
2019-01-30T16:36:32.000Z,31
2019-01-30T16:38:32.000Z,31
2019-01-30T16:40:32.000Z,31
2019-01-30T16:42:32.000Z,31
2019-01-30T16:44:32.000Z,31
2019-01-30T16:45:32.000Z,31
2019-01-30T16:47:32.000Z,31
2019-01-30T16:49:32.000Z,30.9
2019-01-30T16:51:32.000Z,30.9
2019-01-30T16:53:32.000Z,30.9
2019-01-30T16:54:32.000Z,30.9
2019-01-30T16:55:32.000Z,30.9
2019-01-30T16:57:17.000Z,31
2019-01-30T16:58:32.000Z,30.9
2019-01-30T17:00:32.000Z,31
2019-01-30T17:02:32.000Z,31
2019-01-30T17:04:32.000Z,31
2019-01-30T17:05:32.000Z,31
2019-01-30T17:07:32.000Z,31
2019-01-30T17:08:32.000Z,31
2019-01-30T17:10:32.000Z,31
2019-01-30T17:12:32.000Z,31
2019-01-30T17:14:32.000Z,31
2019-01-30T17:15:32.000Z,31
2019-01-30T17:17:17.000Z,30.9
2019-01-30T17:19:32.000Z,30.9
2019-01-30T17:21:32.000Z,30.9
2019-01-30T17:23:32.000Z,30.9
2019-01-30T17:24:32.000Z,30.9
2019-01-30T17:25:32.000Z,30.9
2019-01-30T17:27:32.000Z,30.9
2019-01-30T17:29:32.000Z,30.9
2019-01-30T17:30:32.000Z,30.8
2019-01-30T17:32:32.000Z,30.8
2019-01-30T17:34:32.000Z,30.8
2019-01-30T17:35:32.000Z,30.8
2019-01-30T17:37:32.000Z,30.8
2019-01-30T17:39:32.000Z,30.8
2019-01-30T17:40:32.000Z,30.8
2019-01-30T17:41:32.000Z,30.8
2019-01-30T17:43:32.000Z,30.8
2019-01-30T17:45:17.000Z,30.8
2019-01-30T17:46:32.000Z,30.8
2019-01-30T17:48:32.000Z,30.7
2019-01-30T17:50:32.000Z,30.7
2019-01-30T17:51:32.000Z,30.7
2019-01-30T17:53:32.000Z,30.7
2019-01-30T17:55:32.000Z,30.7
2019-01-30T17:56:32.000Z,30.7
2019-01-30T17:58:32.000Z,30.6
2019-01-30T18:00:16.000Z,30.6
2019-01-30T18:01:32.000Z,30.6
2019-01-30T18:02:32.000Z,30.6
2019-01-30T18:04:32.000Z,30.6
2019-01-30T18:05:32.000Z,30.6
2019-01-30T18:07:32.000Z,30.6
2019-01-30T18:08:32.000Z,30.6
2019-01-30T18:09:32.000Z,30.6
2019-01-30T18:10:32.000Z,30.6
2019-01-30T18:12:32.000Z,30.6
2019-01-30T18:14:32.000Z,30.6
2019-01-30T18:15:32.000Z,30.6
2019-01-30T18:16:32.000Z,30.6
2019-01-30T18:18:32.000Z,30.5
2019-01-30T18:19:32.000Z,30.5
2019-01-30T18:20:32.000Z,30.5
2019-01-30T18:22:32.000Z,30.5
2019-01-30T18:23:32.000Z,30.5
2019-01-30T18:25:32.000Z,30.5
2019-01-30T18:26:32.000Z,30.5
2019-01-30T18:28:32.000Z,30.5
2019-01-30T18:30:16.000Z,30.5
2019-01-30T18:31:32.000Z,30.5
2019-01-30T18:33:32.000Z,30.5
2019-01-30T18:34:32.000Z,30.5
2019-01-30T18:35:32.000Z,30.5
2019-01-30T18:37:16.000Z,30.5
2019-01-30T18:38:32.000Z,30.5
2019-01-30T18:40:16.000Z,30.5
2019-01-30T18:41:32.000Z,30.4
2019-01-30T18:42:32.000Z,30.4
2019-01-30T18:44:32.000Z,30.4
2019-01-30T18:46:16.000Z,30.4
2019-01-30T18:47:32.000Z,30.4
2019-01-30T18:49:32.000Z,30.4
2019-01-30T18:50:32.000Z,30.4
2019-01-30T18:52:32.000Z,30.4
2019-01-30T18:53:32.000Z,30.4
2019-01-30T18:54:32.000Z,30.4
2019-01-30T18:56:32.000Z,30.4
2019-01-30T18:58:32.000Z,30.4
2019-01-30T18:59:32.000Z,30.4
2019-01-30T19:01:32.000Z,30.4
2019-01-30T19:03:32.000Z,30.4
2019-01-30T19:05:32.000Z,30.4
2019-01-30T19:06:32.000Z,30.4
2019-01-30T19:07:32.000Z,30.4
2019-01-30T19:08:32.000Z,30.3
2019-01-30T19:10:32.000Z,30.3
2019-01-30T19:11:32.000Z,30.3
2019-01-30T19:12:32.000Z,30.3
2019-01-30T19:14:32.000Z,30.3
2019-01-30T19:16:32.000Z,30.3
2019-01-30T19:17:32.000Z,30.3
2019-01-30T19:19:32.000Z,30.3
2019-01-30T19:21:32.000Z,30.3
2019-01-30T19:22:32.000Z,30.3
2019-01-30T19:24:19.000Z,30.3
2019-01-30T19:25:32.000Z,30.3
2019-01-30T19:27:32.000Z,30.3
2019-01-30T19:29:32.000Z,30.2
2019-01-30T19:30:32.000Z,30.2
2019-01-30T19:32:32.000Z,30.2
2019-01-30T19:33:32.000Z,30.2
2019-01-30T19:35:17.000Z,30.2
2019-01-30T19:36:32.000Z,30.2
2019-01-30T19:37:32.000Z,30.2
2019-01-30T19:39:32.000Z,30.2
2019-01-30T19:41:32.000Z,30.2
2019-01-30T19:43:32.000Z,30.2
2019-01-30T19:45:32.000Z,30.2
2019-01-30T19:46:32.000Z,30.2
2019-01-30T19:47:32.000Z,30.2
2019-01-30T19:49:32.000Z,30.2
2019-01-30T19:50:32.000Z,30.2
2019-01-30T19:52:32.000Z,30.2
2019-01-30T19:53:32.000Z,30.2
2019-01-30T19:54:32.000Z,30.2
2019-01-30T19:56:32.000Z,30.1
2019-01-30T19:57:32.000Z,30.1
2019-01-30T19:58:32.000Z,30.1
2019-01-30T20:00:17.000Z,30.1
2019-01-30T20:01:32.000Z,30.1
2019-01-30T20:03:32.000Z,30.1
2019-01-30T20:05:32.000Z,30
2019-01-30T20:07:32.000Z,30
2019-01-30T20:09:32.000Z,30
2019-01-30T20:11:32.000Z,30
2019-01-30T20:12:32.000Z,30
2019-01-30T20:14:32.000Z,30
2019-01-30T20:15:32.000Z,30
2019-01-30T20:16:32.000Z,30
2019-01-30T20:17:32.000Z,30
2019-01-30T20:18:32.000Z,30
2019-01-30T20:20:17.000Z,30
2019-01-30T20:21:32.000Z,30
2019-01-30T20:23:32.000Z,29.9
2019-01-30T20:25:16.000Z,29.9
2019-01-30T20:26:32.000Z,29.9
2019-01-30T20:27:32.000Z,29.9
2019-01-30T20:28:32.000Z,29.9
2019-01-30T20:30:32.000Z,29.9
2019-01-30T20:32:32.000Z,29.9
2019-01-30T20:33:32.000Z,29.9
2019-01-30T20:35:32.000Z,29.9
2019-01-30T20:37:17.000Z,29.9
2019-01-30T20:38:32.000Z,29.9
2019-01-30T20:39:32.000Z,29.9
2019-01-30T20:40:32.000Z,29.9
2019-01-30T20:41:32.000Z,29.9
2019-01-30T20:43:32.000Z,29.8
2019-01-30T20:44:32.000Z,29.8
2019-01-30T20:46:16.000Z,29.8
2019-01-30T20:47:32.000Z,29.8
2019-01-30T20:48:32.000Z,29.8
2019-01-30T20:50:32.000Z,29.8
2019-01-30T20:51:32.000Z,29.8
2019-01-30T20:53:32.000Z,29.8
2019-01-30T20:54:32.000Z,29.8
2019-01-30T20:56:32.000Z,29.8
2019-01-30T20:58:32.000Z,29.8
2019-01-30T21:00:32.000Z,29.8
2019-01-30T21:02:32.000Z,29.7
2019-01-30T21:04:32.000Z,29.7
2019-01-30T21:05:32.000Z,29.7
2019-01-30T21:07:17.000Z,29.7
2019-01-30T21:08:32.000Z,29.7
2019-01-30T21:09:32.000Z,29.7
2019-01-30T21:11:32.000Z,29.7
2019-01-30T21:13:32.000Z,29.7
2019-01-30T21:15:32.000Z,29.7
2019-01-30T21:17:32.000Z,29.6
2019-01-30T21:19:32.000Z,29.6
2019-01-30T21:20:32.000Z,29.6
2019-01-30T21:21:32.000Z,29.6
2019-01-30T21:23:32.000Z,29.6
2019-01-30T21:24:32.000Z,29.6
2019-01-30T21:25:32.000Z,29.6
2019-01-30T21:27:32.000Z,29.6
2019-01-30T21:28:32.000Z,29.6
2019-01-30T21:30:32.000Z,29.6
2019-01-30T21:31:32.000Z,29.6